sensor_id;sensor_type;location;lat;lon;timestamp;P1;durP1;ratioP1;P2;durP2;ratioP2
4698;SDS011;33708;49.466;11.176;2023-05-10T00:00:11;17.50;;;5.17;;
4698;SDS011;33708;49.466;11.176;2023-05-10T00:02:37;11.30;;;4.30;;
4698;SDS011;33708;49.466;11.176;2023-05-10T00:05:03;14.97;;;5.17;;
4698;SDS011;33708;49.466;11.176;2023-05-10T00:07:30;15.63;;;5.20;;
4698;SDS011;33708;49.466;11.176;2023-05-10T00:09:55;12.80;;;5.40;;
4698;SDS011;33708;49.466;11.176;2023-05-10T00:12:21;11.27;;;4.70;;
4698;SDS011;33708;49.466;11.176;2023-05-10T00:14:47;14.33;;;5.13;;
4698;SDS011;33708;49.466;11.176;2023-05-10T00:17:12;11.80;;;4.93;;
4698;SDS011;33708;49.466;11.176;2023-05-10T00:19:38;15.27;;;5.73;;
4698;SDS011;33708;49.466;11.176;2023-05-10T00:22:04;13.13;;;5.53;;
4698;SDS011;33708;49.466;11.176;2023-05-10T00:24:30;11.87;;;5.57;;
4698;SDS011;33708;49.466;11.176;2023-05-10T00:26:55;12.07;;;5.47;;
4698;SDS011;33708;49.466;11.176;2023-05-10T00:29:21;15.40;;;6.00;;
4698;SDS011;33708;49.466;11.176;2023-05-10T00:31:47;12.63;;;5.90;;
4698;SDS011;33708;49.466;11.176;2023-05-10T00:34:12;14.07;;;6.00;;
4698;SDS011;33708;49.466;11.176;2023-05-10T00:36:38;12.40;;;5.60;;
4698;SDS011;33708;49.466;11.176;2023-05-10T00:39:03;13.97;;;5.77;;
4698;SDS011;33708;49.466;11.176;2023-05-10T00:41:29;17.43;;;6.70;;
4698;SDS011;33708;49.466;11.176;2023-05-10T00:44:11;13.90;;;6.50;;
4698;SDS011;33708;49.466;11.176;2023-05-10T00:46:48;16.07;;;6.93;;
4698;SDS011;33708;49.466;11.176;2023-05-10T00:49:28;14.47;;;6.33;;
4698;SDS011;33708;49.466;11.176;2023-05-10T00:51:59;14.90;;;6.33;;
4698;SDS011;33708;49.466;11.176;2023-05-10T00:54:27;12.53;;;5.90;;
4698;SDS011;33708;49.466;11.176;2023-05-10T00:56:54;17.50;;;6.87;;
4698;SDS011;33708;49.466;11.176;2023-05-10T00:59:21;15.37;;;6.67;;
4698;SDS011;33708;49.466;11.176;2023-05-10T01:01:47;15.37;;;7.57;;
4698;SDS011;33708;49.466;11.176;2023-05-10T01:04:13;16.87;;;7.00;;
4698;SDS011;33708;49.466;11.176;2023-05-10T01:06:40;13.60;;;6.80;;
4698;SDS011;33708;49.466;11.176;2023-05-10T01:09:06;16.30;;;7.50;;
4698;SDS011;33708;49.466;11.176;2023-05-10T01:11:35;17.00;;;6.80;;
4698;SDS011;33708;49.466;11.176;2023-05-10T01:14:01;14.83;;;6.60;;
4698;SDS011;33708;49.466;11.176;2023-05-10T01:16:28;16.30;;;6.63;;
4698;SDS011;33708;49.466;11.176;2023-05-10T01:18:57;15.80;;;6.97;;
4698;SDS011;33708;49.466;11.176;2023-05-10T01:27:02;14.50;;;7.10;;
4698;SDS011;33708;49.466;11.176;2023-05-10T01:29:57;15.50;;;7.70;;
4698;SDS011;33708;49.466;11.176;2023-05-10T01:36:11;17.80;;;8.30;;
4698;SDS011;33708;49.466;11.176;2023-05-10T01:38:42;18.20;;;8.10;;
4698;SDS011;33708;49.466;11.176;2023-05-10T01:41:19;17.80;;;8.50;;
4698;SDS011;33708;49.466;11.176;2023-05-10T01:44:02;15.40;;;8.20;;
4698;SDS011;33708;49.466;11.176;2023-05-10T01:46:53;16.47;;;7.70;;
4698;SDS011;33708;49.466;11.176;2023-05-10T01:49:30;20.13;;;8.77;;
4698;SDS011;33708;49.466;11.176;2023-05-10T01:52:00;18.67;;;8.10;;
4698;SDS011;33708;49.466;11.176;2023-05-10T01:54:33;18.00;;;8.90;;
4698;SDS011;33708;49.466;11.176;2023-05-10T01:57:01;17.53;;;9.40;;
4698;SDS011;33708;49.466;11.176;2023-05-10T01:59:30;18.57;;;9.40;;
4698;SDS011;33708;49.466;11.176;2023-05-10T02:02:01;18.67;;;8.30;;
4698;SDS011;33708;49.466;11.176;2023-05-10T02:04:29;17.80;;;8.50;;
4698;SDS011;33708;49.466;11.176;2023-05-10T02:06:56;14.90;;;8.00;;
4698;SDS011;33708;49.466;11.176;2023-05-10T02:09:22;17.90;;;9.67;;
4698;SDS011;33708;49.466;11.176;2023-05-10T02:11:50;23.23;;;9.50;;
4698;SDS011;33708;49.466;11.176;2023-05-10T02:14:16;18.90;;;10.37;;
4698;SDS011;33708;49.466;11.176;2023-05-10T02:16:43;17.67;;;8.67;;
4698;SDS011;33708;49.466;11.176;2023-05-10T02:19:10;23.40;;;8.83;;
4698;SDS011;33708;49.466;11.176;2023-05-10T02:21:39;19.30;;;9.60;;
4698;SDS011;33708;49.466;11.176;2023-05-10T02:24:06;17.03;;;9.23;;
4698;SDS011;33708;49.466;11.176;2023-05-10T02:26:33;18.70;;;9.07;;
4698;SDS011;33708;49.466;11.176;2023-05-10T02:29:01;26.60;;;10.00;;
4698;SDS011;33708;49.466;11.176;2023-05-10T02:31:28;17.20;;;9.00;;
4698;SDS011;33708;49.466;11.176;2023-05-10T02:33:56;16.80;;;9.60;;
4698;SDS011;33708;49.466;11.176;2023-05-10T02:36:23;18.77;;;9.03;;
4698;SDS011;33708;49.466;11.176;2023-05-10T02:38:52;20.60;;;9.30;;
4698;SDS011;33708;49.466;11.176;2023-05-10T02:41:18;15.93;;;9.10;;
4698;SDS011;33708;49.466;11.176;2023-05-10T02:43:47;17.00;;;9.07;;
4698;SDS011;33708;49.466;11.176;2023-05-10T02:46:15;17.20;;;9.97;;
4698;SDS011;33708;49.466;11.176;2023-05-10T02:48:41;19.63;;;10.30;;
4698;SDS011;33708;49.466;11.176;2023-05-10T02:51:06;18.13;;;9.77;;
4698;SDS011;33708;49.466;11.176;2023-05-10T02:53:33;17.10;;;9.07;;
4698;SDS011;33708;49.466;11.176;2023-05-10T02:56:01;16.63;;;10.03;;
4698;SDS011;33708;49.466;11.176;2023-05-10T02:58:34;19.20;;;9.70;;
4698;SDS011;33708;49.466;11.176;2023-05-10T03:01:00;17.40;;;10.20;;
4698;SDS011;33708;49.466;11.176;2023-05-10T03:03:26;18.00;;;9.60;;
4698;SDS011;33708;49.466;11.176;2023-05-10T03:05:51;19.87;;;8.63;;
4698;SDS011;33708;49.466;11.176;2023-05-10T03:08:20;28.27;;;10.60;;
4698;SDS011;33708;49.466;11.176;2023-05-10T03:13:43;17.00;;;8.87;;
4698;SDS011;33708;49.466;11.176;2023-05-10T03:16:25;19.53;;;10.30;;
4698;SDS011;33708;49.466;11.176;2023-05-10T03:19:10;17.70;;;9.40;;
4698;SDS011;33708;49.466;11.176;2023-05-10T03:21:59;18.33;;;9.70;;
4698;SDS011;33708;49.466;11.176;2023-05-10T03:24:29;18.50;;;10.10;;
4698;SDS011;33708;49.466;11.176;2023-05-10T03:26:56;17.00;;;8.10;;
4698;SDS011;33708;49.466;11.176;2023-05-10T03:29:27;20.23;;;9.17;;
4698;SDS011;33708;49.466;11.176;2023-05-10T03:31:54;15.30;;;7.60;;
4698;SDS011;33708;49.466;11.176;2023-05-10T03:34:23;15.43;;;5.50;;
4698;SDS011;33708;49.466;11.176;2023-05-10T03:36:49;12.00;;;4.40;;
4698;SDS011;33708;49.466;11.176;2023-05-10T03:39:15;11.30;;;3.97;;
4698;SDS011;33708;49.466;11.176;2023-05-10T03:41:40;11.90;;;3.50;;
4698;SDS011;33708;49.466;11.176;2023-05-10T03:44:06;10.57;;;3.00;;
4698;SDS011;33708;49.466;11.176;2023-05-10T03:46:32;10.30;;;2.80;;
4698;SDS011;33708;49.466;11.176;2023-05-10T03:48:57;8.60;;;1.97;;
4698;SDS011;33708;49.466;11.176;2023-05-10T03:51:23;8.50;;;1.80;;
4698;SDS011;33708;49.466;11.176;2023-05-10T03:53:52;8.90;;;1.97;;
4698;SDS011;33708;49.466;11.176;2023-05-10T03:56:21;9.73;;;1.60;;
4698;SDS011;33708;49.466;11.176;2023-05-10T03:58:46;9.57;;;1.60;;
4698;SDS011;33708;49.466;11.176;2023-05-10T04:01:12;8.23;;;1.50;;
4698;SDS011;33708;49.466;11.176;2023-05-10T04:03:38;8.73;;;1.60;;
4698;SDS011;33708;49.466;11.176;2023-05-10T04:06:03;11.77;;;1.50;;
4698;SDS011;33708;49.466;11.176;2023-05-10T04:08:30;9.47;;;1.17;;
4698;SDS011;33708;49.466;11.176;2023-05-10T04:11:09;11.20;;;1.20;;
4698;SDS011;33708;49.466;11.176;2023-05-10T04:13:36;7.67;;;1.07;;
4698;SDS011;33708;49.466;11.176;2023-05-10T04:16:02;8.73;;;1.10;;
4698;SDS011;33708;49.466;11.176;2023-05-10T04:18:28;8.43;;;1.20;;
4698;SDS011;33708;49.466;11.176;2023-05-10T04:20:54;7.63;;;1.10;;
4698;SDS011;33708;49.466;11.176;2023-05-10T04:23:19;7.90;;;1.20;;
4698;SDS011;33708;49.466;11.176;2023-05-10T04:25:45;8.90;;;1.00;;
4698;SDS011;33708;49.466;11.176;2023-05-10T04:28:10;9.07;;;1.10;;
4698;SDS011;33708;49.466;11.176;2023-05-10T04:30:36;7.63;;;1.10;;
4698;SDS011;33708;49.466;11.176;2023-05-10T04:33:01;7.50;;;1.00;;
4698;SDS011;33708;49.466;11.176;2023-05-10T04:35:27;8.27;;;1.30;;
4698;SDS011;33708;49.466;11.176;2023-05-10T04:37:53;12.90;;;1.30;;
4698;SDS011;33708;49.466;11.176;2023-05-10T04:40:19;7.73;;;0.90;;
4698;SDS011;33708;49.466;11.176;2023-05-10T04:42:45;7.87;;;0.90;;
4698;SDS011;33708;49.466;11.176;2023-05-10T04:45:11;8.20;;;0.80;;
4698;SDS011;33708;49.466;11.176;2023-05-10T04:47:36;7.40;;;0.70;;
4698;SDS011;33708;49.466;11.176;2023-05-10T04:50:02;7.87;;;0.80;;
4698;SDS011;33708;49.466;11.176;2023-05-10T04:52:28;8.23;;;0.80;;
4698;SDS011;33708;49.466;11.176;2023-05-10T04:54:54;9.40;;;0.80;;
4698;SDS011;33708;49.466;11.176;2023-05-10T04:57:23;11.00;;;0.90;;
4698;SDS011;33708;49.466;11.176;2023-05-10T04:59:48;7.70;;;0.90;;
4698;SDS011;33708;49.466;11.176;2023-05-10T05:02:14;8.73;;;1.10;;
4698;SDS011;33708;49.466;11.176;2023-05-10T05:04:39;7.40;;;0.90;;
4698;SDS011;33708;49.466;11.176;2023-05-10T05:07:05;7.90;;;0.90;;
4698;SDS011;33708;49.466;11.176;2023-05-10T05:09:30;7.40;;;0.93;;
4698;SDS011;33708;49.466;11.176;2023-05-10T05:11:57;7.63;;;1.10;;
4698;SDS011;33708;49.466;11.176;2023-05-10T05:14:23;8.43;;;0.90;;
4698;SDS011;33708;49.466;11.176;2023-05-10T05:16:50;7.73;;;1.13;;
4698;SDS011;33708;49.466;11.176;2023-05-10T05:19:18;8.73;;;0.87;;
4698;SDS011;33708;49.466;11.176;2023-05-10T05:21:44;10.53;;;0.90;;
4698;SDS011;33708;49.466;11.176;2023-05-10T05:24:10;7.53;;;1.00;;
4698;SDS011;33708;49.466;11.176;2023-05-10T05:26:37;8.20;;;1.00;;
4698;SDS011;33708;49.466;11.176;2023-05-10T05:29:03;7.87;;;0.90;;
4698;SDS011;33708;49.466;11.176;2023-05-10T05:31:29;10.10;;;1.00;;
4698;SDS011;33708;49.466;11.176;2023-05-10T05:33:54;7.37;;;0.80;;
4698;SDS011;33708;49.466;11.176;2023-05-10T05:36:20;10.27;;;0.97;;
4698;SDS011;33708;49.466;11.176;2023-05-10T05:38:46;8.00;;;0.77;;
4698;SDS011;33708;49.466;11.176;2023-05-10T05:41:12;7.57;;;0.90;;
4698;SDS011;33708;49.466;11.176;2023-05-10T05:43:38;9.53;;;0.80;;
4698;SDS011;33708;49.466;11.176;2023-05-10T05:46:03;7.57;;;0.90;;
4698;SDS011;33708;49.466;11.176;2023-05-10T05:48:29;8.47;;;1.00;;
4698;SDS011;33708;49.466;11.176;2023-05-10T05:50:56;10.93;;;0.97;;
4698;SDS011;33708;49.466;11.176;2023-05-10T05:53:22;7.80;;;0.97;;
4698;SDS011;33708;49.466;11.176;2023-05-10T05:55:54;8.00;;;0.80;;
4698;SDS011;33708;49.466;11.176;2023-05-10T05:58:22;8.50;;;1.70;;
4698;SDS011;33708;49.466;11.176;2023-05-10T06:00:48;7.53;;;0.83;;
4698;SDS011;33708;49.466;11.176;2023-05-10T06:03:14;7.77;;;1.20;;
4698;SDS011;33708;49.466;11.176;2023-05-10T06:05:39;8.80;;;1.17;;
4698;SDS011;33708;49.466;11.176;2023-05-10T06:08:05;8.33;;;0.90;;
4698;SDS011;33708;49.466;11.176;2023-05-10T06:10:30;8.30;;;1.13;;
4698;SDS011;33708;49.466;11.176;2023-05-10T06:12:56;8.00;;;1.10;;
4698;SDS011;33708;49.466;11.176;2023-05-10T06:15:22;10.10;;;1.43;;
4698;SDS011;33708;49.466;11.176;2023-05-10T06:17:47;8.10;;;1.20;;
4698;SDS011;33708;49.466;11.176;2023-05-10T06:20:14;9.50;;;1.13;;
4698;SDS011;33708;49.466;11.176;2023-05-10T06:22:40;11.03;;;1.10;;
4698;SDS011;33708;49.466;11.176;2023-05-10T06:25:06;7.90;;;1.20;;
4698;SDS011;33708;49.466;11.176;2023-05-10T06:27:32;8.40;;;1.30;;
4698;SDS011;33708;49.466;11.176;2023-05-10T06:29:58;11.30;;;1.43;;
4698;SDS011;33708;49.466;11.176;2023-05-10T06:32:24;13.90;;;1.10;;
4698;SDS011;33708;49.466;11.176;2023-05-10T06:34:49;7.90;;;0.93;;
4698;SDS011;33708;49.466;11.176;2023-05-10T06:37:15;7.73;;;1.10;;
4698;SDS011;33708;49.466;11.176;2023-05-10T06:39:41;7.70;;;0.90;;
4698;SDS011;33708;49.466;11.176;2023-05-10T06:42:07;8.10;;;1.17;;
4698;SDS011;33708;49.466;11.176;2023-05-10T06:44:33;8.03;;;1.10;;
4698;SDS011;33708;49.466;11.176;2023-05-10T06:46:58;9.10;;;1.10;;
4698;SDS011;33708;49.466;11.176;2023-05-10T06:49:24;9.17;;;1.20;;
4698;SDS011;33708;49.466;11.176;2023-05-10T06:51:50;15.60;;;1.43;;
4698;SDS011;33708;49.466;11.176;2023-05-10T06:54:15;8.47;;;1.30;;
4698;SDS011;33708;49.466;11.176;2023-05-10T06:56:41;11.20;;;1.27;;
4698;SDS011;33708;49.466;11.176;2023-05-10T06:59:07;7.87;;;1.13;;
4698;SDS011;33708;49.466;11.176;2023-05-10T07:01:32;9.83;;;1.30;;
4698;SDS011;33708;49.466;11.176;2023-05-10T07:03:58;8.30;;;1.17;;
4698;SDS011;33708;49.466;11.176;2023-05-10T07:06:24;7.60;;;1.20;;
4698;SDS011;33708;49.466;11.176;2023-05-10T07:08:49;8.60;;;1.60;;
4698;SDS011;33708;49.466;11.176;2023-05-10T07:11:15;7.60;;;1.00;;
4698;SDS011;33708;49.466;11.176;2023-05-10T07:13:41;7.90;;;1.33;;
4698;SDS011;33708;49.466;11.176;2023-05-10T07:16:09;9.80;;;1.33;;
4698;SDS011;33708;49.466;11.176;2023-05-10T07:18:35;12.83;;;1.20;;
4698;SDS011;33708;49.466;11.176;2023-05-10T07:21:01;8.57;;;1.20;;
4698;SDS011;33708;49.466;11.176;2023-05-10T07:23:27;8.20;;;1.10;;
4698;SDS011;33708;49.466;11.176;2023-05-10T07:25:54;8.40;;;1.33;;
4698;SDS011;33708;49.466;11.176;2023-05-10T07:28:20;10.00;;;1.37;;
4698;SDS011;33708;49.466;11.176;2023-05-10T07:30:45;8.33;;;1.30;;
4698;SDS011;33708;49.466;11.176;2023-05-10T07:33:12;7.53;;;0.90;;
4698;SDS011;33708;49.466;11.176;2023-05-10T07:35:38;8.30;;;1.00;;
4698;SDS011;33708;49.466;11.176;2023-05-10T07:38:04;7.80;;;1.03;;
4698;SDS011;33708;49.466;11.176;2023-05-10T07:40:30;7.80;;;0.80;;
4698;SDS011;33708;49.466;11.176;2023-05-10T07:42:56;7.53;;;0.90;;
4698;SDS011;33708;49.466;11.176;2023-05-10T07:45:22;8.00;;;1.10;;
4698;SDS011;33708;49.466;11.176;2023-05-10T07:47:48;8.40;;;0.90;;
4698;SDS011;33708;49.466;11.176;2023-05-10T07:50:14;7.50;;;0.70;;
4698;SDS011;33708;49.466;11.176;2023-05-10T07:52:40;9.40;;;0.87;;
4698;SDS011;33708;49.466;11.176;2023-05-10T07:55:06;7.60;;;0.70;;
4698;SDS011;33708;49.466;11.176;2023-05-10T07:57:33;7.60;;;1.03;;
4698;SDS011;33708;49.466;11.176;2023-05-10T07:59:59;7.80;;;0.90;;
4698;SDS011;33708;49.466;11.176;2023-05-10T08:02:24;7.90;;;1.00;;
4698;SDS011;33708;49.466;11.176;2023-05-10T08:04:50;7.90;;;0.90;;
4698;SDS011;33708;49.466;11.176;2023-05-10T08:07:16;9.20;;;1.10;;
4698;SDS011;33708;49.466;11.176;2023-05-10T08:09:42;7.67;;;0.90;;
4698;SDS011;33708;49.466;11.176;2023-05-10T08:12:07;7.67;;;1.00;;
4698;SDS011;33708;49.466;11.176;2023-05-10T08:14:33;12.47;;;1.17;;
4698;SDS011;33708;49.466;11.176;2023-05-10T08:16:59;8.43;;;1.20;;
4698;SDS011;33708;49.466;11.176;2023-05-10T08:19:24;11.13;;;1.20;;
4698;SDS011;33708;49.466;11.176;2023-05-10T08:21:50;9.83;;;1.10;;
4698;SDS011;33708;49.466;11.176;2023-05-10T08:24:15;7.90;;;1.10;;
4698;SDS011;33708;49.466;11.176;2023-05-10T08:26:41;11.40;;;1.10;;
4698;SDS011;33708;49.466;11.176;2023-05-10T08:29:07;13.43;;;1.00;;
4698;SDS011;33708;49.466;11.176;2023-05-10T08:31:32;8.27;;;1.17;;
4698;SDS011;33708;49.466;11.176;2023-05-10T08:33:58;7.83;;;1.00;;
4698;SDS011;33708;49.466;11.176;2023-05-10T08:36:23;9.90;;;1.10;;
4698;SDS011;33708;49.466;11.176;2023-05-10T08:38:52;11.60;;;1.10;;
4698;SDS011;33708;49.466;11.176;2023-05-10T08:41:22;10.07;;;1.10;;
4698;SDS011;33708;49.466;11.176;2023-05-10T08:43:50;10.10;;;1.20;;
4698;SDS011;33708;49.466;11.176;2023-05-10T08:46:17;8.10;;;1.33;;
4698;SDS011;33708;49.466;11.176;2023-05-10T08:48:47;13.60;;;1.30;;
4698;SDS011;33708;49.466;11.176;2023-05-10T08:51:15;7.67;;;0.90;;
4698;SDS011;33708;49.466;11.176;2023-05-10T08:53:47;10.77;;;1.17;;
4698;SDS011;33708;49.466;11.176;2023-05-10T08:56:13;9.27;;;1.10;;
4698;SDS011;33708;49.466;11.176;2023-05-10T08:58:40;8.30;;;1.50;;
4698;SDS011;33708;49.466;11.176;2023-05-10T09:01:06;7.80;;;1.10;;
4698;SDS011;33708;49.466;11.176;2023-05-10T09:03:33;8.67;;;1.30;;
4698;SDS011;33708;49.466;11.176;2023-05-10T09:06:00;8.10;;;1.00;;
4698;SDS011;33708;49.466;11.176;2023-05-10T09:08:25;8.40;;;1.17;;
4698;SDS011;33708;49.466;11.176;2023-05-10T09:10:52;9.60;;;1.27;;
4698;SDS011;33708;49.466;11.176;2023-05-10T09:13:19;16.63;;;1.30;;
4698;SDS011;33708;49.466;11.176;2023-05-10T09:15:46;10.00;;;1.17;;
4698;SDS011;33708;49.466;11.176;2023-05-10T09:18:12;9.47;;;1.20;;
4698;SDS011;33708;49.466;11.176;2023-05-10T09:20:38;9.20;;;1.03;;
4698;SDS011;33708;49.466;11.176;2023-05-10T09:23:04;8.00;;;1.17;;
4698;SDS011;33708;49.466;11.176;2023-05-10T09:25:30;8.17;;;1.10;;
4698;SDS011;33708;49.466;11.176;2023-05-10T09:27:58;8.73;;;1.67;;
4698;SDS011;33708;49.466;11.176;2023-05-10T09:30:25;11.13;;;1.60;;
4698;SDS011;33708;49.466;11.176;2023-05-10T09:32:52;9.07;;;1.40;;
4698;SDS011;33708;49.466;11.176;2023-05-10T09:35:19;10.43;;;1.50;;
4698;SDS011;33708;49.466;11.176;2023-05-10T09:37:49;9.30;;;1.40;;
4698;SDS011;33708;49.466;11.176;2023-05-10T09:40:17;9.60;;;1.70;;
4698;SDS011;33708;49.466;11.176;2023-05-10T09:45:32;12.23;;;2.13;;
4698;SDS011;33708;49.466;11.176;2023-05-10T09:47:59;9.40;;;2.23;;
4698;SDS011;33708;49.466;11.176;2023-05-10T09:50:27;11.47;;;1.80;;
4698;SDS011;33708;49.466;11.176;2023-05-10T09:55:22;11.77;;;1.77;;
4698;SDS011;33708;49.466;11.176;2023-05-10T09:57:50;10.23;;;1.93;;
4698;SDS011;33708;49.466;11.176;2023-05-10T10:00:24;9.40;;;1.90;;
4698;SDS011;33708;49.466;11.176;2023-05-10T10:02:56;10.87;;;1.63;;
4698;SDS011;33708;49.466;11.176;2023-05-10T10:05:34;14.33;;;2.50;;
4698;SDS011;33708;49.466;11.176;2023-05-10T10:08:02;10.90;;;2.17;;
4698;SDS011;33708;49.466;11.176;2023-05-10T10:10:29;11.10;;;2.10;;
4698;SDS011;33708;49.466;11.176;2023-05-10T10:12:56;12.77;;;1.90;;
4698;SDS011;33708;49.466;11.176;2023-05-10T10:15:22;10.70;;;2.57;;
4698;SDS011;33708;49.466;11.176;2023-05-10T10:17:48;9.70;;;2.30;;
4698;SDS011;33708;49.466;11.176;2023-05-10T10:20:15;9.13;;;1.90;;
4698;SDS011;33708;49.466;11.176;2023-05-10T10:22:41;10.53;;;2.07;;
4698;SDS011;33708;49.466;11.176;2023-05-10T10:25:12;8.87;;;1.93;;
4698;SDS011;33708;49.466;11.176;2023-05-10T10:27:53;11.73;;;2.50;;
4698;SDS011;33708;49.466;11.176;2023-05-10T10:30:42;10.03;;;2.13;;
4698;SDS011;33708;49.466;11.176;2023-05-10T10:36:24;10.43;;;2.23;;
4698;SDS011;33708;49.466;11.176;2023-05-10T10:55:00;10.80;;;2.00;;
4698;SDS011;33708;49.466;11.176;2023-05-10T10:57:50;10.80;;;1.97;;
4698;SDS011;33708;49.466;11.176;2023-05-10T11:00:24;9.00;;;1.30;;
4698;SDS011;33708;49.466;11.176;2023-05-10T11:03:10;9.87;;;1.37;;
4698;SDS011;33708;49.466;11.176;2023-05-10T11:05:44;11.53;;;1.33;;
4698;SDS011;33708;49.466;11.176;2023-05-10T11:08:25;10.10;;;1.23;;
4698;SDS011;33708;49.466;11.176;2023-05-10T11:13:40;8.43;;;1.40;;
4698;SDS011;33708;49.466;11.176;2023-05-10T11:16:14;8.57;;;1.33;;
4698;SDS011;33708;49.466;11.176;2023-05-10T11:21:50;16.10;;;2.00;;
4698;SDS011;33708;49.466;11.176;2023-05-10T11:24:36;9.40;;;1.50;;
4698;SDS011;33708;49.466;11.176;2023-05-10T11:27:02;9.10;;;1.70;;
4698;SDS011;33708;49.466;11.176;2023-05-10T11:29:28;8.83;;;1.43;;
4698;SDS011;33708;49.466;11.176;2023-05-10T11:31:53;9.23;;;1.40;;
4698;SDS011;33708;49.466;11.176;2023-05-10T11:34:26;11.77;;;1.80;;
4698;SDS011;33708;49.466;11.176;2023-05-10T11:36:53;8.60;;;1.23;;
4698;SDS011;33708;49.466;11.176;2023-05-10T11:39:20;9.37;;;1.60;;
4698;SDS011;33708;49.466;11.176;2023-05-10T11:41:49;9.40;;;1.50;;
4698;SDS011;33708;49.466;11.176;2023-05-10T11:44:15;13.53;;;1.57;;
4698;SDS011;33708;49.466;11.176;2023-05-10T11:46:41;10.60;;;1.60;;
4698;SDS011;33708;49.466;11.176;2023-05-10T11:49:06;12.23;;;1.80;;
4698;SDS011;33708;49.466;11.176;2023-05-10T11:51:33;11.97;;;1.90;;
4698;SDS011;33708;49.466;11.176;2023-05-10T11:54:04;8.80;;;2.20;;
4698;SDS011;33708;49.466;11.176;2023-05-10T11:56:32;10.10;;;1.93;;
4698;SDS011;33708;49.466;11.176;2023-05-10T11:58:58;14.87;;;1.70;;
4698;SDS011;33708;49.466;11.176;2023-05-10T12:01:25;9.53;;;1.40;;
4698;SDS011;33708;49.466;11.176;2023-05-10T12:03:52;9.93;;;1.57;;
4698;SDS011;33708;49.466;11.176;2023-05-10T12:06:19;13.60;;;1.40;;
4698;SDS011;33708;49.466;11.176;2023-05-10T12:08:46;14.23;;;1.60;;
4698;SDS011;33708;49.466;11.176;2023-05-10T12:11:13;7.63;;;1.00;;
4698;SDS011;33708;49.466;11.176;2023-05-10T12:13:43;7.97;;;1.30;;
4698;SDS011;33708;49.466;11.176;2023-05-10T12:16:13;9.13;;;1.40;;
4698;SDS011;33708;49.466;11.176;2023-05-10T12:18:39;10.10;;;1.50;;
4698;SDS011;33708;49.466;11.176;2023-05-10T12:21:06;8.67;;;1.33;;
4698;SDS011;33708;49.466;11.176;2023-05-10T12:23:31;18.43;;;2.00;;
4698;SDS011;33708;49.466;11.176;2023-05-10T12:26:03;9.17;;;1.57;;
4698;SDS011;33708;49.466;11.176;2023-05-10T12:28:30;8.77;;;1.40;;
4698;SDS011;33708;49.466;11.176;2023-05-10T12:30:57;9.10;;;1.50;;
4698;SDS011;33708;49.466;11.176;2023-05-10T12:33:24;9.20;;;1.60;;
4698;SDS011;33708;49.466;11.176;2023-05-10T12:35:50;8.73;;;1.27;;
4698;SDS011;33708;49.466;11.176;2023-05-10T12:40:53;11.63;;;1.70;;
4698;SDS011;33708;49.466;11.176;2023-05-10T12:43:19;11.60;;;2.00;;
4698;SDS011;33708;49.466;11.176;2023-05-10T12:45:45;10.10;;;1.87;;
4698;SDS011;33708;49.466;11.176;2023-05-10T12:48:13;11.47;;;1.50;;
4698;SDS011;33708;49.466;11.176;2023-05-10T12:50:38;11.53;;;1.67;;
4698;SDS011;33708;49.466;11.176;2023-05-10T12:53:04;8.57;;;1.43;;
4698;SDS011;33708;49.466;11.176;2023-05-10T12:55:29;10.20;;;1.70;;
4698;SDS011;33708;49.466;11.176;2023-05-10T12:57:55;10.17;;;1.60;;
4698;SDS011;33708;49.466;11.176;2023-05-10T13:00:21;8.10;;;1.43;;
4698;SDS011;33708;49.466;11.176;2023-05-10T13:02:46;11.83;;;1.73;;
4698;SDS011;33708;49.466;11.176;2023-05-10T13:05:12;10.93;;;1.93;;
4698;SDS011;33708;49.466;11.176;2023-05-10T13:07:38;10.43;;;1.60;;
4698;SDS011;33708;49.466;11.176;2023-05-10T13:10:05;11.90;;;1.60;;
4698;SDS011;33708;49.466;11.176;2023-05-10T13:12:31;10.40;;;1.50;;
4698;SDS011;33708;49.466;11.176;2023-05-10T13:14:56;8.27;;;1.37;;
4698;SDS011;33708;49.466;11.176;2023-05-10T13:17:22;8.20;;;1.60;;
4698;SDS011;33708;49.466;11.176;2023-05-10T13:19:48;8.00;;;1.23;;
4698;SDS011;33708;49.466;11.176;2023-05-10T13:22:14;8.50;;;1.50;;
4698;SDS011;33708;49.466;11.176;2023-05-10T13:24:39;10.50;;;1.17;;
4698;SDS011;33708;49.466;11.176;2023-05-10T13:27:05;13.43;;;1.50;;
4698;SDS011;33708;49.466;11.176;2023-05-10T13:29:30;8.30;;;1.30;;
4698;SDS011;33708;49.466;11.176;2023-05-10T13:31:56;7.73;;;1.00;;
4698;SDS011;33708;49.466;11.176;2023-05-10T13:34:22;8.87;;;1.37;;
4698;SDS011;33708;49.466;11.176;2023-05-10T13:36:49;8.63;;;1.20;;
4698;SDS011;33708;49.466;11.176;2023-05-10T13:39:14;7.80;;;1.17;;
4698;SDS011;33708;49.466;11.176;2023-05-10T13:41:40;8.67;;;1.50;;
4698;SDS011;33708;49.466;11.176;2023-05-10T13:44:06;8.33;;;1.20;;
4698;SDS011;33708;49.466;11.176;2023-05-10T13:46:31;7.63;;;0.97;;
4698;SDS011;33708;49.466;11.176;2023-05-10T13:48:57;8.57;;;0.83;;
4698;SDS011;33708;49.466;11.176;2023-05-10T13:51:23;7.67;;;1.00;;
4698;SDS011;33708;49.466;11.176;2023-05-10T13:53:48;9.60;;;1.00;;
4698;SDS011;33708;49.466;11.176;2023-05-10T13:56:14;7.67;;;0.77;;
4698;SDS011;33708;49.466;11.176;2023-05-10T13:58:40;10.37;;;0.80;;
4698;SDS011;33708;49.466;11.176;2023-05-10T14:01:06;8.10;;;1.07;;
4698;SDS011;33708;49.466;11.176;2023-05-10T14:03:31;7.70;;;1.03;;
4698;SDS011;33708;49.466;11.176;2023-05-10T14:05:57;8.33;;;0.90;;
4698;SDS011;33708;49.466;11.176;2023-05-10T14:08:23;8.97;;;1.07;;
4698;SDS011;33708;49.466;11.176;2023-05-10T14:10:48;8.77;;;1.00;;
4698;SDS011;33708;49.466;11.176;2023-05-10T14:13:15;7.90;;;0.93;;
4698;SDS011;33708;49.466;11.176;2023-05-10T14:15:41;8.63;;;1.10;;
4698;SDS011;33708;49.466;11.176;2023-05-10T14:18:06;7.60;;;0.90;;
4698;SDS011;33708;49.466;11.176;2023-05-10T14:20:32;7.60;;;1.07;;
4698;SDS011;33708;49.466;11.176;2023-05-10T14:22:59;8.37;;;1.00;;
4698;SDS011;33708;49.466;11.176;2023-05-10T14:25:25;9.33;;;0.93;;
4698;SDS011;33708;49.466;11.176;2023-05-10T14:27:51;10.73;;;0.90;;
4698;SDS011;33708;49.466;11.176;2023-05-10T14:30:19;7.73;;;1.00;;
4698;SDS011;33708;49.466;11.176;2023-05-10T14:32:44;9.17;;;1.33;;
4698;SDS011;33708;49.466;11.176;2023-05-10T14:35:10;9.70;;;1.20;;
4698;SDS011;33708;49.466;11.176;2023-05-10T14:37:36;8.50;;;1.00;;
4698;SDS011;33708;49.466;11.176;2023-05-10T14:40:02;9.53;;;1.40;;
4698;SDS011;33708;49.466;11.176;2023-05-10T14:42:29;9.90;;;1.43;;
4698;SDS011;33708;49.466;11.176;2023-05-10T14:44:55;8.80;;;1.40;;
4698;SDS011;33708;49.466;11.176;2023-05-10T14:47:21;9.03;;;1.40;;
4698;SDS011;33708;49.466;11.176;2023-05-10T14:49:46;8.20;;;1.10;;
4698;SDS011;33708;49.466;11.176;2023-05-10T14:52:12;9.07;;;1.33;;
4698;SDS011;33708;49.466;11.176;2023-05-10T14:54:39;8.60;;;1.37;;
4698;SDS011;33708;49.466;11.176;2023-05-10T14:57:05;9.33;;;1.30;;
4698;SDS011;33708;49.466;11.176;2023-05-10T14:59:31;8.73;;;1.37;;
4698;SDS011;33708;49.466;11.176;2023-05-10T15:01:57;10.00;;;1.47;;
4698;SDS011;33708;49.466;11.176;2023-05-10T15:04:22;8.10;;;1.30;;
4698;SDS011;33708;49.466;11.176;2023-05-10T15:06:49;7.93;;;1.17;;
4698;SDS011;33708;49.466;11.176;2023-05-10T15:09:15;10.90;;;1.90;;
4698;SDS011;33708;49.466;11.176;2023-05-10T15:11:41;8.00;;;1.60;;
4698;SDS011;33708;49.466;11.176;2023-05-10T15:14:07;14.53;;;1.33;;
4698;SDS011;33708;49.466;11.176;2023-05-10T15:16:32;9.20;;;1.50;;
4698;SDS011;33708;49.466;11.176;2023-05-10T15:18:58;8.20;;;1.37;;
4698;SDS011;33708;49.466;11.176;2023-05-10T15:21:23;8.40;;;1.17;;
4698;SDS011;33708;49.466;11.176;2023-05-10T15:23:49;8.97;;;1.53;;
4698;SDS011;33708;49.466;11.176;2023-05-10T15:26:15;10.93;;;1.17;;